createdAt,value
2023-04-09T00:00:48.527Z,9.03
2023-04-09T00:03:16.112Z,8.67
2023-04-09T00:05:43.506Z,8.90
2023-04-09T00:08:10.982Z,11.27
2023-04-09T00:10:38.293Z,10.43
2023-04-09T00:13:05.837Z,10.87
2023-04-09T00:15:33.525Z,11.07
2023-04-09T00:18:01.338Z,10.00
2023-04-09T00:20:29.010Z,7.37
2023-04-09T00:22:56.595Z,8.97
2023-04-09T00:25:24.027Z,10.53
2023-04-09T00:27:51.542Z,8.37
2023-04-09T00:30:18.929Z,9.43
2023-04-09T00:32:46.382Z,8.63
2023-04-09T00:35:13.942Z,7.87
2023-04-09T00:37:41.273Z,9.50
2023-04-09T00:40:08.886Z,9.17
2023-04-09T00:42:37.511Z,8.20
2023-04-09T00:45:05.985Z,10.33
2023-04-09T00:47:34.294Z,7.80
2023-04-09T00:50:02.549Z,8.37
2023-04-09T00:52:33.212Z,10.03
2023-04-09T00:55:01.513Z,8.10
2023-04-09T00:57:28.933Z,10.20
2023-04-09T00:59:56.594Z,9.47
2023-04-09T01:02:24.139Z,8.20
2023-04-09T01:04:51.924Z,7.80
2023-04-09T01:07:45.597Z,6.80
2023-04-09T01:10:21.048Z,9.47
2023-04-09T01:13:01.185Z,7.93
2023-04-09T01:15:30.857Z,5.93
2023-04-09T01:18:12.983Z,8.80
2023-04-09T01:20:41.752Z,8.40
2023-04-09T01:23:09.121Z,7.20
2023-04-09T01:25:50.128Z,9.50
2023-04-09T01:28:20.771Z,8.80
2023-04-09T01:30:50.806Z,8.83
2023-04-09T01:33:19.309Z,8.73
2023-04-09T01:35:48.447Z,9.10
2023-04-09T01:38:18.812Z,13.20
2023-04-09T01:40:46.817Z,11.47
2023-04-09T01:43:15.014Z,8.90
2023-04-09T01:45:43.196Z,7.97
2023-04-09T01:48:10.904Z,8.67
2023-04-09T01:50:38.244Z,6.83
2023-04-09T01:53:05.925Z,7.97
2023-04-09T01:55:33.261Z,9.20
2023-04-09T01:58:00.682Z,10.70
2023-04-09T02:00:31.825Z,8.60
2023-04-09T02:03:03.170Z,11.73
2023-04-09T02:05:32.621Z,11.23
2023-04-09T02:08:00.486Z,9.43
2023-04-09T02:10:28.236Z,11.40
2023-04-09T02:12:56.470Z,12.40
2023-04-09T02:15:24.259Z,9.40
2023-04-09T02:17:52.199Z,11.43
2023-04-09T02:20:19.841Z,8.53
2023-04-09T02:22:47.494Z,13.43
2023-04-09T02:25:14.990Z,9.33
2023-04-09T02:27:42.488Z,10.90
2023-04-09T02:30:10.021Z,11.80
2023-04-09T02:32:37.456Z,10.70
2023-04-09T02:35:05.021Z,7.40
2023-04-09T02:37:32.434Z,10.03
2023-04-09T02:39:59.804Z,9.23
2023-04-09T02:42:27.215Z,8.57
2023-04-09T02:44:54.598Z,12.20
2023-04-09T02:47:22.677Z,11.23
2023-04-09T02:49:50.292Z,10.83
2023-04-09T02:52:20.221Z,10.93
2023-04-09T02:54:47.596Z,10.30
2023-04-09T02:57:14.951Z,11.50
2023-04-09T02:59:42.435Z,14.07
2023-04-09T03:02:09.967Z,9.53
2023-04-09T03:04:37.506Z,10.67
2023-04-09T03:07:05.042Z,10.80
2023-04-09T03:09:32.406Z,12.57
2023-04-09T03:11:59.794Z,11.80
2023-04-09T03:14:27.291Z,11.20
2023-04-09T03:16:55.151Z,11.33
2023-04-09T03:19:22.570Z,10.73
2023-04-09T03:21:51.348Z,11.87
2023-04-09T03:24:22.498Z,10.73
2023-04-09T03:26:50.567Z,13.73
2023-04-09T03:29:18.236Z,13.20
2023-04-09T03:31:45.731Z,10.60
2023-04-09T03:34:13.143Z,13.13
2023-04-09T03:36:40.549Z,13.63
2023-04-09T03:39:16.861Z,12.13
2023-04-09T03:41:45.018Z,10.40
2023-04-09T03:44:16.026Z,11.03
2023-04-09T03:47:09.661Z,11.40
2023-04-09T03:49:38.602Z,9.80
2023-04-09T03:52:15.586Z,10.13
2023-04-09T03:54:46.012Z,11.13
2023-04-09T03:57:18.352Z,13.00
2023-04-09T03:59:48.589Z,11.13
2023-04-09T04:02:19.747Z,15.43
2023-04-09T04:04:55.994Z,11.43
2023-04-09T04:07:26.364Z,10.27
2023-04-09T04:09:58.716Z,12.90
2023-04-09T04:12:26.208Z,10.23
2023-04-09T04:15:04.371Z,12.03
2023-04-09T04:17:46.286Z,11.60
2023-04-09T04:20:28.374Z,10.83
2023-04-09T04:23:04.044Z,10.33
2023-04-09T04:25:32.411Z,11.30
2023-04-09T04:28:00.804Z,8.43
2023-04-09T04:30:36.951Z,11.60
2023-04-09T04:33:08.391Z,11.20
2023-04-09T04:35:45.000Z,9.10
2023-04-09T04:38:29.308Z,9.63
2023-04-09T04:40:59.589Z,13.23
2023-04-09T04:43:27.455Z,8.80
2023-04-09T04:45:58.271Z,9.73
2023-04-09T04:48:29.526Z,15.87
2023-04-09T04:51:01.086Z,14.37
2023-04-09T04:53:35.360Z,12.23
2023-04-09T04:56:14.398Z,11.13
2023-04-09T04:58:48.567Z,13.57
2023-04-09T05:01:18.654Z,10.60
2023-04-09T05:03:46.378Z,12.67
2023-04-09T05:06:33.572Z,9.03
2023-04-09T05:09:04.593Z,9.27
2023-04-09T05:11:39.854Z,10.73
2023-04-09T05:14:14.835Z,14.53
2023-04-09T05:16:42.726Z,11.33
2023-04-09T05:19:11.033Z,9.77
2023-04-09T05:21:39.174Z,10.07
2023-04-09T05:24:06.924Z,8.47
2023-04-09T05:26:35.420Z,9.03
2023-04-09T05:29:03.604Z,8.67
2023-04-09T05:31:32.367Z,8.97
2023-04-09T05:34:04.906Z,9.07
2023-04-09T05:36:39.802Z,9.40
2023-04-09T05:39:07.135Z,8.83
2023-04-09T05:41:37.249Z,11.67
2023-04-09T05:44:23.243Z,10.37
2023-04-09T05:46:54.158Z,11.10
2023-04-09T05:49:26.495Z,12.03
2023-04-09T05:51:56.125Z,11.53
2023-04-09T05:54:29.233Z,9.40
2023-04-09T05:56:56.669Z,8.80
2023-04-09T05:59:24.112Z,14.03
2023-04-09T06:01:51.830Z,11.93
2023-04-09T06:04:19.488Z,13.00
2023-04-09T06:06:47.242Z,10.37
2023-04-09T06:09:15.109Z,9.13
2023-04-09T06:11:42.465Z,11.90
2023-04-09T06:14:12.353Z,10.83
2023-04-09T06:16:39.865Z,11.33
2023-04-09T06:19:07.545Z,10.60
2023-04-09T06:21:34.934Z,13.50
2023-04-09T06:24:02.346Z,9.90
2023-04-09T06:26:29.856Z,11.13
2023-04-09T06:28:57.171Z,10.63
2023-04-09T06:31:24.556Z,12.80
2023-04-09T06:33:52.026Z,8.57
2023-04-09T06:36:19.884Z,8.73
2023-04-09T06:38:47.439Z,14.37
2023-04-09T06:41:15.058Z,11.73
2023-04-09T06:43:42.472Z,11.20
2023-04-09T06:46:09.928Z,11.50
2023-04-09T06:48:37.505Z,13.73
2023-04-09T06:51:05.036Z,15.20
2023-04-09T06:53:32.435Z,8.80
2023-04-09T06:55:59.742Z,11.90
2023-04-09T06:58:27.095Z,11.47
2023-04-09T07:00:54.531Z,8.07
2023-04-09T07:03:22.013Z,10.60
2023-04-09T07:05:49.703Z,14.00
2023-04-09T07:08:17.183Z,10.50
2023-04-09T07:10:44.612Z,9.93
2023-04-09T07:13:12.695Z,13.23
2023-04-09T07:15:41.699Z,9.73
2023-04-09T07:18:10.174Z,9.30
2023-04-09T07:20:37.709Z,9.77
2023-04-09T07:23:05.416Z,11.77
2023-04-09T07:25:32.817Z,11.27
2023-04-09T07:28:00.366Z,9.00
2023-04-09T07:30:27.689Z,11.30
2023-04-09T07:32:55.228Z,10.00
2023-04-09T07:35:22.779Z,12.47
2023-04-09T07:37:50.408Z,11.20
2023-04-09T07:40:17.891Z,8.10
2023-04-09T07:42:45.184Z,13.13
2023-04-09T07:45:12.773Z,12.80
2023-04-09T07:47:41.370Z,11.47
2023-04-09T07:50:09.140Z,15.23
2023-04-09T07:52:36.569Z,13.20
2023-04-09T07:55:03.947Z,13.10
2023-04-09T07:57:34.564Z,11.43
2023-04-09T08:00:02.439Z,9.63
2023-04-09T08:02:40.861Z,12.50
2023-04-09T08:05:08.556Z,10.23
2023-04-09T08:07:36.885Z,12.20
2023-04-09T08:10:05.522Z,11.03
2023-04-09T08:12:32.963Z,8.07
2023-04-09T08:15:00.475Z,11.97
2023-04-09T08:17:27.958Z,9.90
2023-04-09T08:19:55.453Z,10.70
2023-04-09T08:22:23.054Z,13.13
2023-04-09T08:24:53.932Z,11.27
2023-04-09T08:27:22.112Z,11.23
2023-04-09T08:29:49.600Z,12.93
2023-04-09T08:32:17.176Z,11.87
2023-04-09T08:34:44.635Z,11.43
2023-04-09T08:37:12.063Z,11.30
2023-04-09T08:39:39.497Z,11.53
2023-04-09T08:42:07.399Z,12.03
2023-04-09T08:44:34.877Z,9.33
2023-04-09T08:47:02.761Z,10.30
2023-04-09T08:49:30.222Z,9.67
2023-04-09T08:51:57.724Z,11.23
2023-04-09T08:54:26.738Z,10.63
2023-04-09T08:56:54.124Z,9.90
2023-04-09T08:59:21.658Z,18.17
2023-04-09T09:01:54.344Z,15.00
2023-04-09T09:04:22.108Z,13.90
2023-04-09T09:06:49.474Z,14.27
2023-04-09T09:09:18.893Z,14.00
2023-04-09T09:11:47.144Z,13.83
2023-04-09T09:14:18.120Z,15.87
2023-04-09T09:17:08.551Z,18.13
2023-04-09T09:19:37.243Z,16.03
2023-04-09T09:22:06.611Z,17.20
2023-04-09T09:24:34.421Z,12.80
2023-04-09T09:27:02.812Z,19.77
2023-04-09T09:29:30.475Z,15.13
2023-04-09T09:31:57.903Z,16.20
2023-04-09T09:34:26.148Z,14.77
2023-04-09T09:36:53.688Z,13.00
2023-04-09T09:39:22.302Z,16.90
2023-04-09T09:42:07.338Z,20.00
2023-04-09T09:44:34.773Z,21.30
2023-04-09T09:47:04.594Z,18.50
2023-04-09T09:49:32.023Z,12.47
2023-04-09T09:52:00.595Z,15.73
2023-04-09T09:54:30.744Z,15.20
2023-04-09T09:57:02.745Z,18.13
2023-04-09T09:59:32.795Z,12.00
2023-04-09T10:02:07.439Z,16.37
2023-04-09T10:04:36.142Z,18.20
2023-04-09T10:07:05.916Z,18.20
2023-04-09T10:09:35.944Z,16.80
2023-04-09T10:12:05.139Z,16.93
2023-04-09T10:14:32.603Z,21.33
2023-04-09T10:17:01.074Z,20.00
2023-04-09T10:19:28.522Z,17.73
2023-04-09T10:21:58.760Z,15.57
2023-04-09T10:24:26.455Z,16.83
2023-04-09T10:26:58.577Z,18.03
2023-04-09T10:29:29.621Z,14.60
2023-04-09T10:32:07.411Z,15.03
2023-04-09T10:34:45.141Z,16.37
2023-04-09T10:37:18.298Z,14.33
2023-04-09T10:39:51.048Z,16.77
2023-04-09T10:42:31.388Z,17.93
2023-04-09T10:45:09.348Z,14.47
2023-04-09T10:47:40.201Z,16.07
2023-04-09T10:50:32.552Z,19.57
2023-04-09T10:53:01.196Z,22.20
2023-04-09T10:55:35.739Z,20.80
2023-04-09T10:58:07.554Z,14.57
2023-04-09T11:00:41.020Z,18.37
2023-04-09T11:03:17.861Z,15.50
2023-04-09T11:05:49.464Z,16.83
2023-04-09T11:08:17.234Z,15.03
2023-04-09T11:10:49.070Z,14.00
2023-04-09T11:13:20.140Z,14.30
2023-04-09T11:15:47.836Z,18.37
2023-04-09T11:18:16.223Z,16.23
2023-04-09T11:20:43.679Z,18.80
2023-04-09T11:23:11.606Z,18.67
2023-04-09T11:25:39.090Z,18.53
2023-04-09T11:28:08.688Z,16.87
2023-04-09T11:30:37.477Z,16.07
2023-04-09T11:33:04.991Z,15.33
2023-04-09T11:35:34.979Z,18.53
2023-04-09T11:38:06.617Z,15.17
2023-04-09T11:40:34.373Z,18.80
2023-04-09T11:43:03.273Z,18.53
2023-04-09T11:45:32.383Z,18.90
2023-04-09T11:48:00.077Z,23.90
2023-04-09T11:50:28.685Z,20.40
2023-04-09T11:53:03.591Z,19.63
2023-04-09T11:55:56.682Z,19.93
2023-04-09T11:58:26.332Z,20.47
2023-04-09T12:00:55.465Z,19.30
2023-04-09T12:03:33.553Z,20.73
2023-04-09T12:06:02.977Z,18.87
2023-04-09T12:08:31.409Z,21.63
2023-04-09T12:11:09.223Z,16.90
2023-04-09T12:13:43.354Z,18.77
2023-04-09T12:16:17.961Z,15.50
2023-04-09T12:18:56.076Z,17.73
2023-04-09T12:21:50.843Z,18.00
2023-04-09T12:24:22.831Z,17.33
2023-04-09T12:26:51.554Z,13.23
2023-04-09T12:29:22.690Z,15.43
2023-04-09T12:31:59.113Z,16.07
2023-04-09T12:34:27.748Z,15.33
2023-04-09T12:36:57.913Z,18.00
2023-04-09T12:39:36.827Z,17.30
2023-04-09T12:42:05.547Z,14.13
2023-04-09T12:44:33.232Z,16.47
2023-04-09T12:47:00.864Z,19.27
2023-04-09T12:49:28.291Z,14.00
2023-04-09T12:51:55.703Z,14.03
2023-04-09T12:54:23.374Z,15.40
2023-04-09T12:56:51.028Z,17.23
2023-04-09T12:59:18.331Z,15.60
2023-04-09T13:01:46.416Z,14.50
2023-04-09T13:04:14.065Z,17.13
2023-04-09T13:06:41.550Z,14.97
2023-04-09T13:09:08.957Z,14.17
2023-04-09T13:11:36.321Z,17.00
2023-04-09T13:14:03.730Z,14.47
2023-04-09T13:16:31.607Z,14.03
2023-04-09T13:18:59.166Z,13.40
2023-04-09T13:21:26.783Z,12.33
2023-04-09T13:23:54.424Z,14.33
2023-04-09T13:26:21.824Z,11.93
2023-04-09T13:28:52.295Z,13.80
2023-04-09T13:31:20.052Z,15.23
2023-04-09T13:33:47.563Z,12.33
2023-04-09T13:36:14.956Z,13.47
2023-04-09T13:38:42.655Z,15.10
2023-04-09T13:41:10.240Z,14.90
2023-04-09T13:43:37.914Z,12.40
2023-04-09T13:46:05.510Z,13.27
2023-04-09T13:48:32.932Z,12.50
2023-04-09T13:51:00.588Z,12.20
2023-04-09T13:53:27.966Z,11.83
2023-04-09T13:55:55.470Z,12.60
2023-04-09T13:58:23.345Z,12.70
2023-04-09T14:00:50.827Z,12.30
2023-04-09T14:03:18.341Z,10.23
2023-04-09T14:05:45.968Z,12.33
2023-04-09T14:08:13.325Z,11.67
2023-04-09T14:10:40.826Z,10.47
2023-04-09T14:13:10.552Z,10.80
2023-04-09T14:15:38.183Z,11.53
2023-04-09T14:18:06.336Z,11.37
2023-04-09T14:20:34.562Z,10.73
2023-04-09T14:23:02.180Z,10.73
2023-04-09T14:25:29.641Z,11.57
2023-04-09T14:27:57.712Z,9.57
2023-04-09T14:30:25.188Z,10.60
2023-04-09T14:32:52.653Z,11.00
2023-04-09T14:35:20.185Z,10.57
2023-04-09T14:37:47.642Z,10.20
2023-04-09T14:40:15.016Z,12.63
2023-04-09T14:42:42.456Z,12.50
2023-04-09T14:45:10.246Z,11.10
2023-04-09T14:47:37.810Z,12.07
2023-04-09T14:50:05.843Z,11.03
2023-04-09T14:52:33.239Z,9.07
2023-04-09T14:55:00.859Z,9.37
2023-04-09T14:57:28.453Z,8.33
2023-04-09T14:59:56.074Z,9.60
2023-04-09T15:02:23.817Z,10.87
2023-04-09T15:04:51.748Z,9.27
2023-04-09T15:07:19.920Z,7.43
2023-04-09T15:09:50.411Z,8.50
2023-04-09T15:12:17.874Z,9.47
2023-04-09T15:14:45.414Z,9.00
2023-04-09T15:17:15.018Z,7.57
2023-04-09T15:19:42.393Z,8.47
2023-04-09T15:22:09.758Z,8.57
2023-04-09T15:24:37.208Z,5.87
2023-04-09T15:27:04.619Z,6.20
2023-04-09T15:29:33.038Z,7.10
2023-04-09T15:32:00.419Z,7.30
2023-04-09T15:34:27.847Z,8.97
2023-04-09T15:36:55.470Z,8.37
2023-04-09T15:39:24.718Z,8.27
2023-04-09T15:41:52.465Z,9.87
2023-04-09T15:44:21.086Z,6.83
2023-04-09T15:46:49.028Z,7.33
2023-04-09T15:49:16.891Z,8.93
2023-04-09T15:51:44.358Z,8.33
2023-04-09T15:54:11.891Z,7.47
2023-04-09T15:56:40.678Z,7.40
2023-04-09T15:59:09.054Z,7.07
2023-04-09T16:01:37.158Z,11.13
2023-04-09T16:04:05.387Z,10.17
2023-04-09T16:06:32.843Z,10.97
2023-04-09T16:09:00.452Z,7.87
2023-04-09T16:11:27.840Z,8.43
2023-04-09T16:13:56.169Z,9.87
2023-04-09T16:16:23.867Z,11.40
2023-04-09T16:18:52.811Z,8.23
2023-04-09T16:21:20.586Z,9.20
2023-04-09T16:23:47.890Z,9.57
2023-04-09T16:26:15.534Z,6.00
2023-04-09T16:28:42.877Z,6.90
2023-04-09T16:31:10.355Z,7.90
2023-04-09T16:33:37.724Z,8.87
2023-04-09T16:36:05.259Z,10.53
2023-04-09T16:38:32.717Z,9.27
2023-04-09T16:41:00.104Z,9.93
2023-04-09T16:43:27.403Z,8.90
2023-04-09T16:45:54.891Z,9.00
2023-04-09T16:48:22.339Z,8.13
2023-04-09T16:50:49.674Z,7.50
2023-04-09T16:53:16.991Z,15.80
2023-04-09T16:55:44.905Z,12.27
2023-04-09T16:58:12.263Z,8.23
2023-04-09T17:00:40.091Z,9.17
2023-04-09T17:03:07.661Z,9.93
2023-04-09T17:05:35.272Z,8.77
2023-04-09T17:08:03.099Z,8.43
2023-04-09T17:10:30.586Z,10.53
2023-04-09T17:12:58.017Z,9.37
2023-04-09T17:15:25.848Z,8.13
2023-04-09T17:17:53.739Z,7.77
2023-04-09T17:20:24.919Z,9.63
2023-04-09T17:22:52.453Z,10.77
2023-04-09T17:25:20.786Z,45.63
2023-04-09T17:27:48.137Z,11.67
2023-04-09T17:30:15.397Z,11.63
2023-04-09T17:32:44.094Z,9.47
2023-04-09T17:35:11.465Z,8.90
2023-04-09T17:37:39.514Z,10.00
2023-04-09T17:40:08.025Z,7.37
2023-04-09T17:42:35.381Z,8.70
2023-04-09T17:45:02.974Z,7.97
2023-04-09T17:47:30.367Z,7.63
2023-04-09T17:49:57.815Z,5.83
2023-04-09T17:52:25.150Z,7.27
2023-04-09T17:54:52.460Z,8.43
2023-04-09T17:57:19.954Z,7.13
2023-04-09T17:59:47.375Z,8.07
2023-04-09T18:02:14.757Z,8.00
2023-04-09T18:04:42.536Z,8.53
2023-04-09T18:07:10.116Z,7.97
2023-04-09T18:09:39.157Z,7.67
2023-04-09T18:12:06.841Z,10.73
2023-04-09T18:14:34.256Z,8.57
2023-04-09T18:17:02.133Z,7.40
2023-04-09T18:19:29.513Z,7.40
2023-04-09T18:21:56.910Z,7.33
2023-04-09T18:24:26.227Z,7.70
2023-04-09T18:26:53.812Z,6.53
2023-04-09T18:29:21.209Z,7.97
2023-04-09T18:31:48.768Z,7.07
2023-04-09T18:34:16.782Z,6.33
2023-04-09T18:36:44.105Z,7.60
2023-04-09T18:39:11.484Z,8.17
2023-04-09T18:41:38.870Z,7.63
2023-04-09T18:44:07.036Z,5.70
2023-04-09T18:46:34.324Z,6.90
2023-04-09T18:49:01.958Z,8.60
2023-04-09T18:51:30.699Z,7.27
2023-04-09T18:54:00.628Z,5.77
2023-04-09T18:56:29.057Z,6.57
2023-04-09T18:58:56.787Z,5.97
2023-04-09T19:01:24.256Z,6.67
2023-04-09T19:03:51.942Z,5.73
2023-04-09T19:06:20.167Z,6.87
2023-04-09T19:08:48.088Z,7.90
2023-04-09T19:11:15.470Z,8.30
2023-04-09T19:13:42.885Z,6.80
2023-04-09T19:16:10.414Z,7.03
2023-04-09T19:18:38.024Z,6.90
2023-04-09T19:21:06.421Z,7.63
2023-04-09T19:23:34.546Z,6.60
2023-04-09T19:26:02.256Z,6.07
2023-04-09T19:28:31.756Z,7.33
2023-04-09T19:31:01.301Z,6.00
2023-04-09T19:33:30.513Z,6.73
2023-04-09T19:35:58.086Z,7.23
2023-04-09T19:38:25.509Z,4.90
2023-04-09T19:40:53.040Z,5.57
2023-04-09T19:43:20.346Z,5.87
2023-04-09T19:45:47.673Z,6.93
2023-04-09T19:48:15.043Z,6.93
2023-04-09T19:50:43.408Z,5.63
2023-04-09T19:53:10.905Z,6.53
2023-04-09T19:55:38.327Z,5.60
2023-04-09T19:58:06.522Z,6.17
2023-04-09T20:00:34.583Z,6.37
2023-04-09T20:03:07.073Z,6.20
2023-04-09T20:05:34.617Z,6.67
2023-04-09T20:08:01.997Z,7.13
2023-04-09T20:10:29.412Z,7.93
2023-04-09T20:12:56.742Z,6.97
2023-04-09T20:15:24.182Z,4.87
2023-04-09T20:17:52.746Z,5.20
2023-04-09T20:20:20.496Z,7.20
2023-04-09T20:22:56.320Z,6.10
2023-04-09T20:25:24.601Z,8.07
2023-04-09T20:27:55.931Z,6.07
2023-04-09T20:30:23.679Z,5.63
2023-04-09T20:32:51.039Z,6.83
2023-04-09T20:35:18.437Z,6.00
2023-04-09T20:37:48.391Z,6.87
2023-04-09T20:40:15.745Z,5.87
2023-04-09T20:42:43.190Z,6.53
2023-04-09T20:45:10.908Z,6.07
2023-04-09T20:47:38.267Z,5.57
2023-04-09T20:50:05.958Z,5.43
2023-04-09T20:52:33.281Z,6.80
2023-04-09T20:55:00.896Z,7.13
2023-04-09T20:57:28.264Z,7.83
2023-04-09T20:59:55.557Z,5.90
2023-04-09T21:02:23.549Z,6.90
2023-04-09T21:04:51.303Z,5.53
2023-04-09T21:07:18.645Z,5.73
2023-04-09T21:09:45.992Z,5.60
2023-04-09T21:12:13.326Z,5.87
2023-04-09T21:14:40.710Z,6.83
2023-04-09T21:17:08.137Z,5.70
2023-04-09T21:19:35.730Z,6.27
2023-04-09T21:22:03.329Z,5.83
2023-04-09T21:24:31.473Z,6.83
2023-04-09T21:26:58.865Z,6.43
2023-04-09T21:29:26.241Z,6.37
2023-04-09T21:31:53.723Z,5.53
2023-04-09T21:34:21.490Z,6.97
2023-04-09T21:36:48.849Z,5.53
2023-04-09T21:39:16.244Z,5.20
2023-04-09T21:41:43.600Z,6.27
2023-04-09T21:44:11.025Z,7.13
2023-04-09T21:46:40.503Z,5.67
2023-04-09T21:49:08.282Z,5.83
2023-04-09T21:51:35.600Z,7.83
2023-04-09T21:54:04.245Z,6.10
2023-04-09T21:56:32.732Z,6.97
2023-04-09T21:59:00.920Z,5.20
2023-04-09T22:01:30.456Z,7.07
2023-04-09T22:04:04.578Z,6.17
2023-04-09T22:06:32.292Z,6.27
2023-04-09T22:09:00.048Z,5.23
2023-04-09T22:11:28.573Z,6.60
2023-04-09T22:13:56.800Z,5.57
2023-04-09T22:16:24.479Z,4.90
2023-04-09T22:18:52.836Z,6.63
2023-04-09T22:21:20.782Z,6.97
2023-04-09T22:23:48.067Z,8.10
2023-04-09T22:26:17.354Z,7.10
2023-04-09T22:28:44.788Z,6.93
2023-04-09T22:31:13.670Z,6.27
2023-04-09T22:33:42.171Z,5.37
2023-04-09T22:36:09.800Z,6.20
2023-04-09T22:38:37.546Z,5.37
2023-04-09T22:41:05.110Z,7.60
2023-04-09T22:43:35.793Z,6.73
2023-04-09T22:46:03.560Z,7.63
2023-04-09T22:48:31.078Z,6.77
2023-04-09T22:50:59.028Z,5.03
2023-04-09T22:53:26.789Z,6.80
2023-04-09T22:55:54.989Z,6.63
2023-04-09T22:58:22.508Z,6.83
2023-04-09T23:00:50.854Z,6.33
2023-04-09T23:03:19.670Z,7.87
2023-04-09T23:05:47.229Z,7.17
2023-04-09T23:08:14.829Z,9.97
2023-04-09T23:10:42.341Z,9.63
2023-04-09T23:13:11.685Z,7.87
2023-04-09T23:15:39.094Z,7.93
2023-04-09T23:18:06.623Z,7.97
2023-04-09T23:20:34.532Z,8.70
2023-04-09T23:23:02.069Z,8.00
2023-04-09T23:25:31.158Z,7.47
2023-04-09T23:27:58.646Z,7.63
2023-04-09T23:30:26.233Z,7.10
2023-04-09T23:32:56.291Z,7.57
2023-04-09T23:35:25.054Z,6.23
2023-04-09T23:37:53.825Z,9.83
2023-04-09T23:40:21.466Z,7.27
2023-04-09T23:42:50.298Z,6.07
2023-04-09T23:45:17.833Z,5.93
2023-04-09T23:47:46.066Z,8.07
2023-04-09T23:50:13.646Z,7.67
2023-04-09T23:52:46.670Z,6.83
2023-04-09T23:55:15.417Z,9.73
2023-04-09T23:57:43.868Z,7.43
